Time;durP1;ratioP1;P1;durP2;ratioP2;P2;SDS_P1;SDS_P2;PMS_P1;PMS_P2;Temp;Humidity;BMP_temperature;BMP_pressure;BME280_temperature;BME280_humidity;BME280_pressure;Samples;Min_cycle;Max_cycle;Signal;HPM_P1;HPM_P2
2022/10/21 00:04:49;;;;;;;28.40;13.80;;;;;;;2.41;88.03;99178.83;214539;1309;26097;-74
2022/10/21 00:09:51;;;;;;;34.30;14.80;;;;;;;2.37;88.27;99187.48;214680;1309;23323;-72
2022/10/21 00:14:52;;;;;;;33.70;16.40;;;;;;;2.32;88.43;99190.73;214666;1309;22477;-73
2022/10/21 00:19:57;;;;;;;31.70;16.20;;;;;;;2.26;88.44;99197.88;214712;1309;22468;-73
2022/10/21 00:24:59;;;;;;;31.90;15.40;;;;;;;2.20;88.60;99187.67;214463;1309;24250;-72
2022/10/21 00:30:04;;;;;;;31.70;15.50;;;;;;;2.15;88.64;99175.95;214788;1309;23754;-72
2022/10/21 00:35:06;;;;;;;32.00;15.50;;;;;;;2.08;88.80;99166.20;214784;1309;25272;-73
2022/10/21 00:40:08;;;;;;;31.50;14.90;;;;;;;2.01;88.96;99167.61;214652;1309;22487;-73
2022/10/21 00:45:16;;;;;;;36.60;17.50;;;;;;;1.96;89.08;99170.28;214607;1309;22497;-72
2022/10/21 00:50:27;;;;;;;33.80;16.60;;;;;;;1.90;89.01;99161.70;215085;1309;22487;-72
2022/10/21 00:55:32;;;;;;;37.90;16.90;;;;;;;1.83;89.11;99152.64;214737;1309;24257;-73
2022/10/21 01:00:35;;;;;;;47.40;20.60;;;;;;;1.77;89.21;99147.91;214736;1309;23346;-73
2022/10/21 01:05:39;;;;;;;36.60;17.70;;;;;;;1.71;89.23;99134.08;214742;1309;25436;-73
2022/10/21 01:10:41;;;;;;;45.90;20.70;;;;;;;1.64;89.41;99122.42;214579;1309;22692;-73
2022/10/21 01:15:56;;;;;;;39.60;17.80;;;;;;;1.59;89.72;99124.42;214465;1309;22516;-73
2022/10/21 01:21:24;;;;;;;30.60;16.00;;;;;;;1.53;89.63;99116.77;214777;1309;22460;-72
2022/10/21 01:26:54;;;;;;;34.60;16.30;;;;;;;1.51;90.12;99116.14;214569;1309;22574;-73
2022/10/21 01:32:32;;;;;;;25.00;13.50;;;;;;;1.47;90.04;99113.07;214626;1309;22525;-72
2022/10/21 01:37:42;;;;;;;28.90;14.80;;;;;;;1.47;90.13;99117.30;214414;1309;22545;-72
2022/10/21 01:42:52;;;;;;;26.30;14.70;;;;;;;1.42;90.07;99120.52;214737;1309;22611;-73
2022/10/21 01:48:01;;;;;;;31.70;15.10;;;;;;;1.35;90.21;99122.00;214678;1309;22614;-73
2022/10/21 01:53:10;;;;;;;36.10;14.20;;;;;;;1.28;90.17;99107.24;214483;1310;22479;-72
2022/10/21 01:58:18;;;;;;;30.70;14.30;;;;;;;1.21;90.53;99103.55;214438;1310;22476;-73
2022/10/21 02:03:25;;;;;;;35.50;17.30;;;;;;;1.16;90.51;99105.10;214533;1309;22549;-73
2022/10/21 02:08:26;;;;;;;29.60;15.10;;;;;;;1.11;90.65;99094.96;214366;1308;132657;-73
2022/10/21 02:13:38;;;;;;;32.70;16.50;;;;;;;1.06;90.66;99096.60;214600;1309;24360;-73
2022/10/21 02:18:40;;;;;;;36.20;16.50;;;;;;;1.00;90.73;99082.92;214565;1309;22506;-73
2022/10/21 02:23:53;;;;;;;34.70;17.00;;;;;;;0.96;90.85;99071.29;214615;1309;22573;-72
2022/10/21 02:28:58;;;;;;;33.20;17.10;;;;;;;0.92;90.94;99078.25;214503;1309;23110;-74
2022/10/21 02:34:09;;;;;;;34.40;15.60;;;;;;;0.90;91.15;99078.13;214642;1309;23203;-72
2022/10/21 02:39:20;;;;;;;37.70;16.80;;;;;;;0.86;91.20;99074.59;214649;1309;22480;-73
2022/10/21 02:44:22;;;;;;;33.60;17.80;;;;;;;0.82;91.16;99073.52;214446;1309;25452;-72
2022/10/21 02:49:24;;;;;;;32.60;16.60;;;;;;;0.78;91.29;99061.22;214506;1292;22477;-73
2022/10/21 02:54:26;;;;;;;24.40;12.30;;;;;;;0.78;91.57;99050.86;214663;1309;22477;-72
2022/10/21 02:59:27;;;;;;;26.10;13.20;;;;;;;0.82;91.87;99041.15;214517;1307;23227;-73
2022/10/21 03:04:29;;;;;;;28.90;13.50;;;;;;;0.87;91.78;99042.23;214757;1309;22580;-73
2022/10/21 03:09:31;;;;;;;30.90;14.60;;;;;;;0.88;91.73;99036.39;214671;1309;23847;-73
2022/10/21 03:14:33;;;;;;;26.60;13.50;;;;;;;0.85;91.76;99032.23;214650;1309;24458;-73
2022/10/21 03:19:35;;;;;;;29.10;14.60;;;;;;;0.85;92.02;99029.73;214699;1309;22481;-73
2022/10/21 03:24:36;;;;;;;28.40;15.40;;;;;;;0.85;91.92;99027.94;214647;1309;25386;-73
2022/10/21 03:29:38;;;;;;;30.40;16.20;;;;;;;0.88;92.11;99025.27;214724;1309;22630;-73
2022/10/21 03:34:40;;;;;;;27.90;14.40;;;;;;;0.86;92.13;99020.37;214782;1309;26524;-72
2022/10/21 03:39:42;;;;;;;34.30;16.30;;;;;;;0.85;92.09;99018.92;214717;1309;24398;-73
2022/10/21 03:44:44;;;;;;;29.30;14.70;;;;;;;0.81;92.21;99019.48;214688;1305;22496;-72
2022/10/21 03:49:46;;;;;;;28.00;14.20;;;;;;;0.80;92.32;99029.31;214657;1309;22616;-73
2022/10/21 03:54:47;;;;;;;36.40;16.40;;;;;;;0.76;92.28;99025.24;214709;1308;22628;-73
2022/10/21 03:59:49;;;;;;;27.80;15.20;;;;;;;0.75;92.51;99020.77;214593;1309;22529;-73
2022/10/21 04:04:51;;;;;;;34.10;16.10;;;;;;;0.74;92.59;99023.24;214717;1304;22527;-71
2022/10/21 04:09:53;;;;;;;31.70;14.90;;;;;;;0.77;92.86;99028.73;214663;1309;22579;-73
2022/10/21 04:14:54;;;;;;;38.10;16.00;;;;;;;0.80;92.76;99028.63;214656;1304;22589;-73
2022/10/21 04:19:56;;;;;;;31.70;14.40;;;;;;;0.81;92.58;99026.52;214780;1309;22488;-74
2022/10/21 04:24:58;;;;;;;33.40;15.30;;;;;;;0.81;92.66;99009.83;214560;1298;22604;-72
2022/10/21 04:30:06;;;;;;;31.00;15.80;;;;;;;0.79;92.44;99000.71;214746;1309;22602;-73
2022/10/21 04:35:08;;;;;;;29.10;14.10;;;;;;;0.79;92.71;99009.40;214645;1309;22491;-72
2022/10/21 04:40:10;;;;;;;36.10;16.30;;;;;;;0.78;92.73;99009.00;214631;1309;24395;-73
2022/10/21 04:45:11;;;;;;;29.00;15.30;;;;;;;0.76;92.81;99012.95;214847;1309;22953;-73
2022/10/21 04:50:13;;;;;;;33.10;15.00;;;;;;;0.75;92.84;99002.59;214788;1309;22504;-74
2022/10/21 04:55:15;;;;;;;24.20;12.50;;;;;;;0.74;92.75;99002.23;214799;1309;24513;-72
2022/10/21 05:00:17;;;;;;;32.40;15.80;;;;;;;0.74;93.23;98995.70;214677;1301;22565;-74
2022/10/21 05:05:19;;;;;;;35.40;16.70;;;;;;;0.75;93.15;98996.95;214815;1309;25231;-74
2022/10/21 05:10:22;;;;;;;39.90;18.40;;;;;;;0.79;93.23;98998.52;214733;1309;24259;-74
2022/10/21 05:15:25;;;;;;;41.00;20.00;;;;;;;0.85;93.17;98995.91;214605;1309;22544;-74
2022/10/21 05:20:27;;;;;;;42.40;20.70;;;;;;;0.95;93.36;98977.33;214544;1309;25389;-73
2022/10/21 05:25:28;;;;;;;47.20;22.80;;;;;;;1.07;93.33;99006.14;214575;1309;25364;-72
2022/10/21 05:30:35;;;;;;;54.20;23.80;;;;;;;1.19;93.41;98982.14;214759;1307;22726;-73
2022/10/21 05:35:36;;;;;;;54.10;25.40;;;;;;;1.33;93.57;98990.48;214711;1303;22531;-74
2022/10/21 05:40:38;;;;;;;65.10;26.80;;;;;;;1.45;93.37;98985.39;214872;1294;25215;-72
2022/10/21 05:45:40;;;;;;;55.00;25.70;;;;;;;1.57;93.39;98987.38;215094;1285;22759;-72
2022/10/21 05:50:42;;;;;;;40.60;19.30;;;;;;;1.70;93.55;98986.52;214978;1277;22481;-73
2022/10/21 05:55:44;;;;;;;58.90;26.30;;;;;;;1.79;93.31;98983.61;214804;1285;22627;-73
2022/10/21 06:00:53;;;;;;;59.30;28.30;;;;;;;1.87;93.17;98987.73;215462;1277;22523;-72
2022/10/21 06:05:59;;;;;;;51.40;25.70;;;;;;;1.90;92.87;98985.78;215037;1278;25387;-73
2022/10/21 06:11:05;;;;;;;54.50;27.30;;;;;;;1.94;92.93;98980.81;215817;1278;23537;-73
2022/10/21 06:16:08;;;;;;;51.60;28.70;;;;;;;1.96;92.88;98986.45;215598;1277;100041;-73
2022/10/21 06:21:12;;;;;;;55.90;28.90;;;;;;;1.97;92.79;98991.32;215937;1277;22597;-73
2022/10/21 06:26:15;;;;;;;49.20;25.80;;;;;;;1.99;92.87;98992.47;215313;1277;99738;-72
2022/10/21 06:31:20;;;;;;;44.10;22.90;;;;;;;2.05;93.04;98985.52;216252;1285;99923;-73
2022/10/21 06:36:22;;;;;;;51.40;28.50;;;;;;;2.15;93.12;98982.11;215078;1277;100251;-72
2022/10/21 06:41:24;;;;;;;62.40;29.30;;;;;;;2.31;93.38;98973.55;215236;1285;100297;-72
2022/10/21 06:46:26;;;;;;;51.30;28.10;;;;;;;2.52;93.63;98965.99;214930;1277;100646;-72
2022/10/21 06:51:28;;;;;;;41.80;24.40;;;;;;;2.83;94.18;98946.66;215035;1284;99959;-72
2022/10/21 06:56:30;;;;;;;38.30;20.90;;;;;;;3.31;94.62;98948.23;215249;1277;22461;-71
2022/10/21 07:01:32;;;;;;;35.30;18.30;;;;;;;3.85;94.98;98943.33;215224;1285;99626;-73
2022/10/21 07:06:54;;;;;;;37.80;21.00;;;;;;;4.42;95.13;98937.27;215056;1277;99561;-73
2022/10/21 07:11:56;;;;;;;33.70;17.50;;;;;;;4.83;94.31;98933.14;215177;1278;99833;-73
2022/10/21 07:16:57;;;;;;;31.40;16.80;;;;;;;5.22;94.19;98943.00;215177;1288;99738;-74
2022/10/21 07:22:00;;;;;;;28.60;14.60;;;;;;;5.64;94.08;98933.27;215699;1287;99854;-73
2022/10/21 07:27:01;;;;;;;24.40;12.90;;;;;;;6.06;93.58;98930.98;215012;1293;22839;-73
2022/10/21 07:32:03;;;;;;;22.50;11.70;;;;;;;6.47;93.59;98917.96;215143;1281;99800;-73
2022/10/21 07:37:05;;;;;;;16.60;10.30;;;;;;;6.85;92.85;98913.84;215043;1277;101222;-72
2022/10/21 07:42:08;;;;;;;19.60;10.80;;;;;;;7.21;92.50;98906.02;215145;1277;99815;-73
2022/10/21 07:47:10;;;;;;;17.30;9.60;;;;;;;7.51;91.79;98900.90;215212;1277;99720;-73
2022/10/21 07:52:12;;;;;;;18.30;11.20;;;;;;;7.73;91.09;98903.23;215123;1285;99669;-73
2022/10/21 07:57:19;;;;;;;18.20;10.40;;;;;;;7.98;90.64;98893.79;215155;1278;24289;-73
2022/10/21 08:02:22;;;;;;;16.30;9.40;;;;;;;8.25;90.02;98884.09;215207;1277;99476;-73
2022/10/21 08:07:24;;;;;;;13.00;8.50;;;;;;;8.46;88.75;98882.89;215087;1277;99448;-73
2022/10/21 08:12:26;;;;;;;15.60;9.90;;;;;;;8.57;87.23;98873.98;215074;1277;99595;-73
2022/10/21 08:17:28;;;;;;;16.20;10.00;;;;;;;8.69;86.97;98863.64;215389;1287;99556;-73
2022/10/21 08:22:29;;;;;;;14.70;9.60;;;;;;;8.98;87.37;98859.66;215710;1277;99948;-73
2022/10/21 08:27:32;;;;;;;14.20;8.60;;;;;;;9.31;87.08;98851.40;215061;1278;99567;-73
2022/10/21 08:32:34;;;;;;;12.70;9.40;;;;;;;9.53;85.61;98846.85;215161;1281;22491;-73
2022/10/21 08:37:36;;;;;;;17.00;9.90;;;;;;;9.39;83.47;98837.64;214976;1286;99407;-73
2022/10/21 08:42:41;;;;;;;19.20;10.30;;;;;;;9.16;82.98;98834.70;215272;1277;99602;-73
2022/10/21 08:47:48;;;;;;;24.80;12.40;;;;;;;8.99;83.30;98823.91;215239;1278;100144;-73
2022/10/21 08:52:57;;;;;;;20.40;11.20;;;;;;;8.93;83.70;98816.83;215304;1281;101491;-73
2022/10/21 08:58:00;;;;;;;19.80;11.80;;;;;;;8.87;83.39;98814.29;215130;1285;99961;-73
2022/10/21 09:03:30;;;;;;;24.90;13.30;;;;;;;8.84;83.36;98807.91;215216;1277;25334;-72
2022/10/21 09:08:40;;;;;;;25.70;13.60;;;;;;;8.88;83.67;98799.12;215216;1296;22633;-74
2022/10/21 09:14:12;;;;;;;20.10;11.20;;;;;;;8.91;83.62;98798.63;214999;1286;100068;-72
2022/10/21 09:19:22;;;;;;;21.20;11.50;;;;;;;8.90;83.28;98797.23;215954;1277;100331;-73
2022/10/21 09:24:31;;;;;;;24.20;14.00;;;;;;;8.96;83.82;98786.27;215361;1308;100479;-73
2022/10/21 09:29:42;;;;;;;24.80;13.20;;;;;;;9.23;84.47;98777.77;215169;1285;100458;-72
2022/10/21 09:35:28;;;;;;;18.60;12.60;;;;;;;9.52;84.49;98770.00;215050;1280;100507;-73
2022/10/21 09:40:30;;;;;;;21.20;12.00;;;;;;;9.85;84.10;98764.02;215150;1277;100449;-73
2022/10/21 09:45:42;;;;;;;21.90;12.60;;;;;;;10.10;83.88;98765.14;215192;1282;100371;-72
2022/10/21 09:50:47;;;;;;;22.50;12.60;;;;;;;10.38;83.84;98764.73;215252;1278;24304;-72
2022/10/21 09:55:55;;;;;;;20.00;12.20;;;;;;;10.62;83.17;98769.09;215056;1277;100536;-72
2022/10/21 10:00:57;;;;;;;28.20;12.50;;;;;;;10.68;82.22;98771.68;215154;1281;100411;-73
2022/10/21 10:06:00;;;;;;;15.90;9.80;;;;;;;10.77;82.02;98770.17;215222;1282;100521;-73
2022/10/21 10:11:02;;;;;;;17.50;11.00;;;;;;;10.80;80.77;98776.08;215320;1277;99928;-72
2022/10/21 10:16:16;;;;;;;24.10;12.30;;;;;;;10.73;80.39;98776.23;215211;1277;100356;-73
2022/10/21 10:21:20;;;;;;;20.10;11.50;;;;;;;10.73;80.61;98771.50;215926;1285;22549;-72
2022/10/21 10:26:31;;;;;;;20.10;11.90;;;;;;;10.83;81.19;98764.94;215612;1284;99626;-72
2022/10/21 10:31:34;;;;;;;18.80;10.60;;;;;;;11.03;81.25;98758.06;215054;1281;100690;-72
2022/10/21 10:36:39;;;;;;;21.40;12.80;;;;;;;11.23;81.04;98761.17;215105;1278;101180;-72
2022/10/21 10:41:46;;;;;;;27.50;14.60;;;;;;;11.36;80.76;98756.25;215023;1285;100714;-73
2022/10/21 10:46:54;;;;;;;17.80;10.80;;;;;;;11.59;81.34;98738.86;215082;1285;100803;-72
2022/10/21 10:52:08;;;;;;;16.50;9.20;;;;;;;11.77;80.80;98736.52;215102;1278;100654;-73
2022/10/21 10:57:17;;;;;;;16.70;9.30;;;;;;;11.90;80.68;98723.65;215532;1293;24404;-74
2022/10/21 11:02:47;;;;;;;19.80;9.50;;;;;;;12.09;80.78;98716.27;215223;1284;100153;-74
2022/10/21 11:07:51;;;;;;;14.50;9.10;;;;;;;12.36;80.49;98701.80;215115;1284;100335;-72
2022/10/21 11:12:53;;;;;;;14.20;8.30;;;;;;;12.70;79.89;98689.12;215268;1284;100389;-73
2022/10/21 11:18:01;;;;;;;13.20;7.40;;;;;;;12.98;79.12;98687.82;215472;1277;100477;-73
2022/10/21 11:23:49;;;;;;;16.70;7.80;;;;;;;13.23;78.47;98677.31;215461;1278;100478;-73
2022/10/21 11:29:10;;;;;;;10.30;5.90;;;;;;;13.44;77.69;98668.62;215057;1301;100113;-73
2022/10/21 11:34:21;;;;;;;12.90;5.00;;;;;;;13.52;75.26;98666.43;215021;1277;100288;-73
2022/10/21 11:39:47;;;;;;;11.90;5.70;;;;;;;13.47;74.19;98656.83;215262;1277;22523;-71
2022/10/21 11:45:01;;;;;;;17.60;4.90;;;;;;;13.59;75.24;98642.27;215098;1277;22518;-73
2022/10/21 11:50:34;;;;;;;11.40;5.10;;;;;;;13.79;73.57;98627.60;215072;1285;99606;-71
2022/10/21 11:55:42;;;;;;;6.30;4.30;;;;;;;13.82;72.72;98615.83;215116;1278;100530;-71
2022/10/21 12:01:13;;;;;;;9.30;5.60;;;;;;;13.77;71.19;98630.74;215059;1278;101290;-72
2022/10/21 12:06:29;;;;;;;12.40;5.40;;;;;;;13.81;71.18;98622.73;215037;1285;99898;-73
2022/10/21 12:11:40;;;;;;;8.20;5.20;;;;;;;13.90;70.55;98599.63;215159;1285;99644;-71
2022/10/21 12:16:44;;;;;;;9.00;4.70;;;;;;;13.97;71.21;98584.23;215225;1277;99962;-74
2022/10/21 12:21:46;;;;;;;12.40;5.30;;;;;;;13.99;70.70;98589.79;215690;1277;99643;-72
2022/10/21 12:26:57;;;;;;;8.40;5.40;;;;;;;13.98;70.46;98602.63;215243;1277;22503;-72
2022/10/21 12:32:09;;;;;;;8.30;5.20;;;;;;;14.02;71.16;98584.72;215022;1277;99236;-71
2022/10/21 12:37:49;;;;;;;12.80;5.60;;;;;;;14.09;71.16;98581.02;215034;1278;99314;-72
2022/10/21 12:43:04;;;;;;;12.40;6.50;;;;;;;14.02;69.29;98588.80;215065;1295;99671;-72
2022/10/21 12:48:31;;;;;;;10.90;5.70;;;;;;;14.00;70.47;98584.15;215123;1278;99665;-72
2022/10/21 12:53:40;;;;;;;7.80;5.10;;;;;;;14.13;70.93;98555.80;215257;1287;99637;-72
2022/10/21 12:58:45;;;;;;;9.70;5.80;;;;;;;14.22;70.87;98553.27;215147;1278;99965;-72
2022/10/21 13:03:51;;;;;;;9.90;5.50;;;;;;;14.32;70.80;98551.16;215313;1285;99840;-72
2022/10/21 13:08:54;;;;;;;12.90;5.80;;;;;;;14.36;70.87;98561.64;215215;1284;23164;-73
2022/10/21 13:14:28;;;;;;;7.30;4.80;;;;;;;14.34;70.36;98572.71;215156;1284;99519;-73
2022/10/21 13:19:36;;;;;;;7.90;5.40;;;;;;;14.28;70.42;98581.70;215787;1295;99868;-71
2022/10/21 13:24:40;;;;;;;13.20;6.20;;;;;;;14.26;70.33;98579.54;215254;1285;100150;-73
2022/10/21 13:29:47;;;;;;;11.90;5.80;;;;;;;14.33;71.06;98576.45;215150;1281;100468;-73
2022/10/21 13:35:00;;;;;;;10.50;6.60;;;;;;;14.36;70.59;98580.04;215170;1285;100340;-74
2022/10/21 13:40:06;;;;;;;10.00;4.70;;;;;;;14.28;69.57;98576.94;215119;1285;99990;-73
2022/10/21 13:45:47;;;;;;;12.10;8.00;;;;;;;14.20;69.92;98576.48;215673;1277;22460;-73
2022/10/21 13:50:50;;;;;;;6.80;4.00;;;;;;;14.09;69.39;98588.72;215243;1277;22487;-72
2022/10/21 13:55:58;;;;;;;7.70;3.90;;;;;;;14.00;69.52;98592.16;215069;1283;99337;-72
2022/10/21 14:01:26;;;;;;;6.00;3.70;;;;;;;13.89;69.08;98596.58;215136;1278;99259;-74
2022/10/21 14:06:34;;;;;;;6.30;3.90;;;;;;;13.77;69.03;98596.39;214395;1312;141460;-73
2022/10/21 14:11:45;;;;;;;6.90;3.80;;;;;;;13.64;67.99;98598.76;214493;1312;22606;-74
2022/10/21 14:16:51;;;;;;;6.60;4.40;;;;;;;13.49;67.70;98598.33;214766;1311;22481;-74
2022/10/21 14:21:57;;;;;;;4.90;3.50;;;;;;;13.35;67.75;98595.02;214593;1311;23753;-74
2022/10/21 14:27:00;;;;;;;7.30;4.20;;;;;;;13.23;68.02;98593.98;214627;1311;24312;-74
2022/10/21 14:32:04;;;;;;;6.00;3.40;;;;;;;13.13;68.67;98602.27;214578;1304;25468;-73
2022/10/21 14:37:09;;;;;;;4.90;3.20;;;;;;;13.00;68.63;98597.42;214524;1305;23756;-74
2022/10/21 14:42:19;;;;;;;7.40;4.60;;;;;;;12.88;68.89;98597.89;214592;1312;25000;-74
2022/10/21 14:47:24;;;;;;;6.30;4.20;;;;;;;12.74;69.37;98598.72;214620;1311;26399;-74
2022/10/21 14:52:31;;;;;;;7.50;4.50;;;;;;;12.67;69.53;98603.58;214593;1310;22709;-74
2022/10/21 14:57:52;;;;;;;6.60;4.00;;;;;;;12.59;69.83;98602.95;214586;1312;22485;-74
2022/10/21 15:02:55;;;;;;;8.20;4.50;;;;;;;12.52;69.75;98597.91;214500;1312;22512;-73
2022/10/21 15:08:20;;;;;;;8.60;4.60;;;;;;;12.45;70.03;98602.16;214617;1310;25251;-74
2022/10/21 15:13:24;;;;;;;7.10;4.20;;;;;;;12.40;70.10;98608.61;214466;1311;25227;-73
2022/10/21 15:18:35;;;;;;;7.40;4.10;;;;;;;12.34;70.51;98615.25;214449;1305;24334;-72
2022/10/21 15:23:40;;;;;;;5.80;4.00;;;;;;;12.27;70.35;98618.61;214566;1309;22613;-74
2022/10/21 15:28:43;;;;;;;6.40;4.80;;;;;;;12.22;69.88;98628.04;214462;1311;22465;-73
2022/10/21 15:33:47;;;;;;;11.10;4.10;;;;;;;12.16;70.20;98628.98;214578;1312;24267;-73
2022/10/21 15:38:49;;;;;;;23.70;14.20;;;;;;;12.09;69.90;98629.82;214402;1307;22470;-74
2022/10/21 15:44:03;;;;;;;8.50;4.10;;;;;;;12.08;69.82;98626.44;214407;1312;22477;-73
2022/10/21 15:49:12;;;;;;;8.80;4.30;;;;;;;12.03;69.95;98622.52;214560;1312;25276;-74
2022/10/21 15:54:14;;;;;;;8.70;4.30;;;;;;;11.97;70.06;98619.59;214548;1312;22484;-73
2022/10/21 15:59:25;;;;;;;4.40;3.60;;;;;;;11.92;69.84;98620.15;214552;1312;25260;-74
2022/10/21 16:04:27;;;;;;;6.60;4.60;;;;;;;11.87;69.94;98612.52;214579;1310;22482;-73
2022/10/21 16:09:29;;;;;;;7.20;4.50;;;;;;;11.82;69.91;98623.78;214563;1311;25385;-74
2022/10/21 16:14:31;;;;;;;9.90;4.60;;;;;;;11.79;69.90;98625.90;214434;1312;25481;-74
2022/10/21 16:19:32;;;;;;;7.70;4.60;;;;;;;11.75;69.81;98629.58;214396;1312;22473;-74
2022/10/21 16:24:34;;;;;;;6.20;4.50;;;;;;;11.69;70.13;98630.86;214476;1312;22484;-73
2022/10/21 16:29:36;;;;;;;11.70;6.50;;;;;;;11.64;70.74;98632.52;214460;1310;23916;-74
2022/10/21 16:34:39;;;;;;;9.40;5.70;;;;;;;11.61;70.68;98641.93;214486;1303;22478;-74
2022/10/21 16:39:40;;;;;;;10.70;6.10;;;;;;;11.56;70.51;98649.73;214641;1311;22484;-73
2022/10/21 16:44:45;;;;;;;9.70;5.60;;;;;;;11.53;70.64;98653.98;214463;1312;23607;-73
2022/10/21 16:49:48;;;;;;;9.60;5.10;;;;;;;11.48;70.82;98658.16;214512;1312;22526;-74
2022/10/21 16:54:49;;;;;;;8.30;5.20;;;;;;;11.44;71.23;98656.61;214522;1311;22479;-74
2022/10/21 16:59:51;;;;;;;8.30;4.40;;;;;;;11.40;71.24;98651.27;214527;1311;22925;-73
2022/10/21 17:04:54;;;;;;;5.80;4.60;;;;;;;11.37;71.18;98653.04;214506;1311;25343;-73
2022/10/21 17:09:55;;;;;;;8.00;3.90;;;;;;;11.33;71.30;98656.92;214467;1312;24241;-74
2022/10/21 17:14:58;;;;;;;6.50;4.50;;;;;;;11.28;70.84;98659.79;214380;1304;22468;-74
2022/10/21 17:20:00;;;;;;;8.10;4.50;;;;;;;11.25;70.74;98659.25;214507;1312;25408;-73
2022/10/21 17:25:03;;;;;;;6.30;3.80;;;;;;;11.23;70.85;98660.90;214585;1312;24531;-72
2022/10/21 17:30:05;;;;;;;5.90;4.20;;;;;;;11.22;71.09;98659.96;214627;1309;22484;-74
2022/10/21 17:35:13;;;;;;;7.10;4.20;;;;;;;11.18;71.06;98655.09;214391;1310;23234;-73
2022/10/21 17:40:26;;;;;;;6.50;3.90;;;;;;;11.13;70.85;98643.55;214580;1312;22956;-73
2022/10/21 17:45:27;;;;;;;8.20;4.50;;;;;;;11.09;70.82;98625.48;214356;1311;22482;-73
2022/10/21 17:50:30;;;;;;;6.70;4.90;;;;;;;11.05;70.85;98621.09;214449;1312;25274;-74
2022/10/21 17:55:32;;;;;;;7.90;4.00;;;;;;;11.02;71.05;98613.34;214622;1311;23755;-73
2022/10/21 18:00:34;;;;;;;8.70;4.70;;;;;;;11.00;71.21;98604.27;214467;1311;25269;-73
2022/10/21 18:05:39;;;;;;;6.70;4.00;;;;;;;10.98;71.39;98596.41;214624;1312;25333;-73
2022/10/21 18:10:41;;;;;;;9.50;4.80;;;;;;;10.95;71.63;98583.86;214663;1311;25372;-72
2022/10/21 18:15:43;;;;;;;6.90;4.80;;;;;;;10.91;72.18;98578.73;214465;1310;22639;-74
2022/10/21 18:20:46;;;;;;;6.20;4.20;;;;;;;10.87;72.55;98560.80;214581;1311;22477;-73
2022/10/21 18:25:47;;;;;;;8.40;4.70;;;;;;;10.85;72.44;98553.39;214636;1311;25342;-73
2022/10/21 18:30:49;;;;;;;6.50;4.30;;;;;;;10.83;72.38;98540.83;214356;1311;24434;-74
2022/10/21 18:35:53;;;;;;;8.30;5.10;;;;;;;10.85;72.30;98548.25;214475;1312;25345;-73
2022/10/21 18:40:55;;;;;;;10.00;4.70;;;;;;;10.84;72.38;98552.97;214511;1310;25273;-74
2022/10/21 18:46:04;;;;;;;9.90;5.30;;;;;;;10.81;73.29;98557.27;214498;1310;24421;-75
2022/10/21 18:51:08;;;;;;;8.00;4.80;;;;;;;10.71;75.81;98558.57;214638;1310;25309;-73
2022/10/21 18:56:12;;;;;;;8.10;5.00;;;;;;;10.56;75.71;98561.39;214547;1310;22625;-73
2022/10/21 19:01:14;;;;;;;8.80;5.30;;;;;;;10.40;76.34;98560.45;214552;1310;24436;-73
2022/10/21 19:06:34;;;;;;;9.70;5.60;;;;;;;10.27;76.71;98555.60;214546;1310;22517;-73
2022/10/21 19:11:36;;;;;;;;;;;;;;;10.14;77.20;98553.95;214491;1310;22461;-73
2022/10/21 19:16:39;;;;;;;12.30;7.30;;;;;;;10.05;77.62;98554.67;214464;1310;24788;-74
2022/10/21 19:21:41;;;;;;;10.90;6.30;;;;;;;9.98;78.01;98544.98;214521;1297;22598;-73
2022/10/21 19:26:45;;;;;;;9.80;5.80;;;;;;;9.92;78.30;98544.80;214559;1310;25290;-73
2022/10/21 19:31:47;;;;;;;11.10;6.10;;;;;;;9.87;78.60;98546.38;214513;1310;22918;-72
2022/10/21 19:36:49;;;;;;;11.40;5.90;;;;;;;9.81;78.70;98556.24;214606;1310;22484;-73
2022/10/21 19:41:53;;;;;;;9.90;5.60;;;;;;;9.76;78.82;98558.51;214443;1310;24255;-73
2022/10/21 19:46:55;;;;;;;10.10;6.30;;;;;;;9.68;79.49;98555.45;214525;1310;24382;-73
2022/10/21 19:51:57;;;;;;;12.90;6.60;;;;;;;9.63;79.47;98569.85;214588;1310;23851;-72
2022/10/21 19:56:59;;;;;;;10.40;6.40;;;;;;;9.57;79.79;98564.36;214518;1310;22500;-74
2022/10/21 20:02:01;;;;;;;10.70;6.30;;;;;;;9.50;79.85;98561.35;214442;1310;22480;-74
2022/10/21 20:07:03;;;;;;;10.70;6.00;;;;;;;9.44;79.80;98555.54;214709;1310;22468;-73
2022/10/21 20:12:05;;;;;;;12.60;6.30;;;;;;;9.39;80.27;98559.59;214530;1310;22566;-73
2022/10/21 20:17:07;;;;;;;10.10;6.60;;;;;;;9.35;80.55;98570.07;214473;1309;22476;-74
2022/10/21 20:22:09;;;;;;;11.80;6.60;;;;;;;9.37;80.96;98570.38;214464;1310;25250;-74
2022/10/21 20:27:11;;;;;;;11.90;6.30;;;;;;;9.40;80.79;98572.80;214466;1310;22566;-74
2022/10/21 20:32:13;;;;;;;11.80;6.30;;;;;;;9.44;80.65;98580.45;214342;1310;23112;-74
2022/10/21 20:37:15;;;;;;;10.00;5.50;;;;;;;9.49;80.64;98586.86;214593;1310;25292;-74
2022/10/21 20:42:16;;;;;;;8.20;5.00;;;;;;;9.52;80.37;98588.75;214382;1297;22470;-73
2022/10/21 20:47:18;;;;;;;9.30;5.00;;;;;;;9.55;80.40;98583.59;214464;1304;22530;-74
2022/10/21 20:52:20;;;;;;;9.40;6.00;;;;;;;9.60;80.26;98569.20;214645;1310;23390;-74
2022/10/21 20:57:22;;;;;;;9.10;4.90;;;;;;;9.64;80.11;98562.24;214481;1310;24081;-74
2022/10/21 21:02:24;;;;;;;9.00;5.30;;;;;;;9.68;79.94;98555.34;214443;1310;23735;-74
2022/10/21 21:07:25;;;;;;;9.90;5.00;;;;;;;9.71;79.79;98541.98;214430;1310;24307;-74
2022/10/21 21:12:32;;;;;;;10.90;5.20;;;;;;;9.70;79.85;98531.77;214681;1309;22482;-73
2022/10/21 21:17:34;;;;;;;7.40;4.70;;;;;;;9.69;79.70;98535.44;214465;1310;22483;-72
2022/10/21 21:22:36;;;;;;;9.70;5.00;;;;;;;9.68;79.61;98538.65;214675;1310;23156;-74
2022/10/21 21:27:38;;;;;;;9.00;5.00;;;;;;;9.71;79.42;98539.41;214490;1310;22954;-74
2022/10/21 21:32:42;;;;;;;9.70;5.30;;;;;;;9.73;79.28;98534.04;214413;1310;22466;-74
2022/10/21 21:37:45;;;;;;;8.60;5.10;;;;;;;9.75;79.13;98523.15;214453;1310;24563;-73
2022/10/21 21:42:46;;;;;;;9.50;5.30;;;;;;;9.79;79.08;98525.57;214484;1309;22479;-73
2022/10/21 21:47:49;;;;;;;7.90;4.60;;;;;;;9.81;78.75;98538.20;214485;1310;22699;-73
2022/10/21 21:52:51;;;;;;;9.90;5.60;;;;;;;9.80;78.81;98542.45;214647;1310;22522;-73
2022/10/21 21:57:53;;;;;;;8.10;4.90;;;;;;;9.79;78.54;98544.17;214633;1310;22604;-73
2022/10/21 22:02:55;;;;;;;7.30;4.90;;;;;;;9.80;78.35;98533.73;214497;1310;25384;-73
2022/10/21 22:07:58;;;;;;;9.70;5.40;;;;;;;9.78;78.42;98532.95;214414;1310;24401;-73
2022/10/21 22:12:59;;;;;;;8.90;4.60;;;;;;;9.76;78.52;98524.37;214377;1310;25333;-74
2022/10/21 22:18:01;;;;;;;7.70;4.40;;;;;;;9.75;78.27;98504.58;214499;1310;25434;-74
2022/10/21 22:23:04;;;;;;;9.00;3.90;;;;;;;9.74;78.10;98500.70;214662;1310;22546;-74
2022/10/21 22:28:05;;;;;;;5.80;3.50;;;;;;;9.75;78.06;98492.55;214615;1310;25394;-73
2022/10/21 22:33:07;;;;;;;7.30;4.90;;;;;;;9.74;78.14;98476.24;214604;1300;25398;-74
2022/10/21 22:38:09;;;;;;;8.00;4.70;;;;;;;9.75;78.16;98475.91;214525;1310;22886;-73
2022/10/21 22:43:11;;;;;;;9.10;4.70;;;;;;;9.77;78.19;98489.42;214602;1310;22475;-73
2022/10/21 22:48:12;;;;;;;7.60;4.70;;;;;;;9.79;78.25;98494.48;214545;1310;24328;-73
2022/10/21 22:53:14;;;;;;;9.10;5.30;;;;;;;9.80;78.07;98503.63;214514;1310;22603;-73
2022/10/21 22:58:18;;;;;;;6.80;4.70;;;;;;;9.79;78.04;98498.66;214720;1310;22487;-73
2022/10/21 23:03:20;;;;;;;9.40;5.30;;;;;;;9.78;77.74;98495.93;214582;1310;22547;-73
2022/10/21 23:08:24;;;;;;;6.80;5.00;;;;;;;9.75;77.48;98491.96;214406;1310;22650;-72
2022/10/21 23:13:34;;;;;;;5.90;4.10;;;;;;;9.73;77.57;98492.47;214576;1304;22481;-73
2022/10/21 23:18:36;;;;;;;6.60;4.00;;;;;;;9.74;77.30;98489.71;214519;1310;22530;-73
2022/10/21 23:23:38;;;;;;;6.30;4.20;;;;;;;9.77;77.27;98489.15;214512;1310;25391;-73
2022/10/21 23:28:39;;;;;;;6.60;4.10;;;;;;;9.77;77.03;98491.08;214462;1304;22492;-73
2022/10/21 23:33:41;;;;;;;7.30;4.30;;;;;;;9.77;76.98;98490.71;214667;1295;22469;-73
2022/10/21 23:38:43;;;;;;;6.10;4.00;;;;;;;9.77;76.85;98487.27;214466;1310;23714;-73